sensor_id;sensor_type;location;lat;lon;timestamp;temperature;humidity
16182;DHT22;8197;51.664;7.114;2024-02-16T00:05:03;12.70;86.90
16182;DHT22;8197;51.664;7.114;2024-02-16T00:10:10;12.70;85.70
16182;DHT22;8197;51.664;7.114;2024-02-16T00:15:14;12.60;87.80
16182;DHT22;8197;51.664;7.114;2024-02-16T00:20:17;12.40;89.20
16182;DHT22;8197;51.664;7.114;2024-02-16T00:25:24;12.30;90.00
16182;DHT22;8197;51.664;7.114;2024-02-16T00:30:27;12.30;89.60
16182;DHT22;8197;51.664;7.114;2024-02-16T00:35:30;12.30;89.70
16182;DHT22;8197;51.664;7.114;2024-02-16T00:40:36;12.40;89.00
16182;DHT22;8197;51.664;7.114;2024-02-16T00:45:45;12.50;87.80
16182;DHT22;8197;51.664;7.114;2024-02-16T00:50:48;12.50;88.40
16182;DHT22;8197;51.664;7.114;2024-02-16T00:55:53;12.50;88.20
16182;DHT22;8197;51.664;7.114;2024-02-16T01:00:56;12.50;87.30
16182;DHT22;8197;51.664;7.114;2024-02-16T01:05:59;12.50;87.90
16182;DHT22;8197;51.664;7.114;2024-02-16T01:11:03;12.60;87.50
16182;DHT22;8197;51.664;7.114;2024-02-16T01:16:07;12.50;87.90
16182;DHT22;8197;51.664;7.114;2024-02-16T01:21:10;12.50;88.20
16182;DHT22;8197;51.664;7.114;2024-02-16T01:26:14;12.50;87.10
16182;DHT22;8197;51.664;7.114;2024-02-16T01:31:17;12.50;86.60
16182;DHT22;8197;51.664;7.114;2024-02-16T01:36:20;12.50;86.50
16182;DHT22;8197;51.664;7.114;2024-02-16T01:41:24;12.60;86.30
16182;DHT22;8197;51.664;7.114;2024-02-16T01:46:27;12.50;86.20
16182;DHT22;8197;51.664;7.114;2024-02-16T01:51:31;12.50;85.50
16182;DHT22;8197;51.664;7.114;2024-02-16T01:56:36;12.50;86.00
16182;DHT22;8197;51.664;7.114;2024-02-16T02:01:39;12.60;84.90
16182;DHT22;8197;51.664;7.114;2024-02-16T02:06:42;12.60;85.40
16182;DHT22;8197;51.664;7.114;2024-02-16T02:11:46;12.70;84.30
16182;DHT22;8197;51.664;7.114;2024-02-16T02:16:49;12.70;84.00
16182;DHT22;8197;51.664;7.114;2024-02-16T02:22:00;12.80;83.30
16182;DHT22;8197;51.664;7.114;2024-02-16T02:27:04;12.70;84.60
16182;DHT22;8197;51.664;7.114;2024-02-16T02:32:07;12.70;84.60
16182;DHT22;8197;51.664;7.114;2024-02-16T02:37:11;12.60;85.30
16182;DHT22;8197;51.664;7.114;2024-02-16T02:42:15;12.60;85.90
16182;DHT22;8197;51.664;7.114;2024-02-16T02:47:18;12.60;85.10
16182;DHT22;8197;51.664;7.114;2024-02-16T02:52:21;12.60;84.50
16182;DHT22;8197;51.664;7.114;2024-02-16T02:57:26;12.60;85.40
16182;DHT22;8197;51.664;7.114;2024-02-16T03:02:29;12.50;86.00
16182;DHT22;8197;51.664;7.114;2024-02-16T03:07:32;12.50;85.50
16182;DHT22;8197;51.664;7.114;2024-02-16T03:12:37;12.60;85.60
16182;DHT22;8197;51.664;7.114;2024-02-16T03:17:40;12.60;85.50
16182;DHT22;8197;51.664;7.114;2024-02-16T03:22:43;12.60;85.80
16182;DHT22;8197;51.664;7.114;2024-02-16T03:27:47;12.60;84.80
16182;DHT22;8197;51.664;7.114;2024-02-16T03:32:50;12.60;84.80
16182;DHT22;8197;51.664;7.114;2024-02-16T03:37:54;12.60;85.00
16182;DHT22;8197;51.664;7.114;2024-02-16T03:42:58;12.60;84.60
16182;DHT22;8197;51.664;7.114;2024-02-16T03:48:01;12.60;85.20
16182;DHT22;8197;51.664;7.114;2024-02-16T03:53:04;12.60;84.80
16182;DHT22;8197;51.664;7.114;2024-02-16T03:58:08;12.60;84.90
16182;DHT22;8197;51.664;7.114;2024-02-16T04:03:11;12.70;84.40
16182;DHT22;8197;51.664;7.114;2024-02-16T04:08:14;12.60;85.00
16182;DHT22;8197;51.664;7.114;2024-02-16T04:13:18;12.60;85.10
16182;DHT22;8197;51.664;7.114;2024-02-16T04:18:21;12.60;84.60
16182;DHT22;8197;51.664;7.114;2024-02-16T04:23:24;12.70;85.10
16182;DHT22;8197;51.664;7.114;2024-02-16T04:28:28;12.70;85.20
16182;DHT22;8197;51.664;7.114;2024-02-16T04:33:32;12.70;85.20
16182;DHT22;8197;51.664;7.114;2024-02-16T04:38:35;12.70;85.00
16182;DHT22;8197;51.664;7.114;2024-02-16T04:43:39;12.70;84.90
16182;DHT22;8197;51.664;7.114;2024-02-16T04:48:42;12.70;84.60
16182;DHT22;8197;51.664;7.114;2024-02-16T04:53:45;12.70;85.00
16182;DHT22;8197;51.664;7.114;2024-02-16T04:58:51;12.70;85.50
16182;DHT22;8197;51.664;7.114;2024-02-16T05:03:54;12.70;85.30
16182;DHT22;8197;51.664;7.114;2024-02-16T05:08:57;12.70;85.10
16182;DHT22;8197;51.664;7.114;2024-02-16T05:14:01;12.60;85.40
16182;DHT22;8197;51.664;7.114;2024-02-16T05:19:04;12.60;85.30
16182;DHT22;8197;51.664;7.114;2024-02-16T05:24:07;12.70;85.90
16182;DHT22;8197;51.664;7.114;2024-02-16T05:29:12;12.60;85.70
16182;DHT22;8197;51.664;7.114;2024-02-16T05:34:14;12.70;86.00
16182;DHT22;8197;51.664;7.114;2024-02-16T05:39:17;12.70;86.60
16182;DHT22;8197;51.664;7.114;2024-02-16T05:44:30;12.60;86.50
16182;DHT22;8197;51.664;7.114;2024-02-16T05:49:34;12.60;86.90
16182;DHT22;8197;51.664;7.114;2024-02-16T05:54:37;12.60;87.00
16182;DHT22;8197;51.664;7.114;2024-02-16T05:59:42;12.60;87.40
16182;DHT22;8197;51.664;7.114;2024-02-16T06:04:47;12.50;88.10
16182;DHT22;8197;51.664;7.114;2024-02-16T06:09:50;12.50;88.40
16182;DHT22;8197;51.664;7.114;2024-02-16T06:14:57;12.50;88.70
16182;DHT22;8197;51.664;7.114;2024-02-16T06:20:00;12.50;88.90
16182;DHT22;8197;51.664;7.114;2024-02-16T06:25:08;12.50;89.00
16182;DHT22;8197;51.664;7.114;2024-02-16T06:30:13;12.50;89.40
16182;DHT22;8197;51.664;7.114;2024-02-16T06:35:16;12.50;89.70
16182;DHT22;8197;51.664;7.114;2024-02-16T06:40:19;12.50;89.90
16182;DHT22;8197;51.664;7.114;2024-02-16T06:45:24;12.40;90.40
16182;DHT22;8197;51.664;7.114;2024-02-16T06:50:27;12.40;90.70
16182;DHT22;8197;51.664;7.114;2024-02-16T06:55:39;12.50;90.80
16182;DHT22;8197;51.664;7.114;2024-02-16T07:00:43;12.50;90.80
16182;DHT22;8197;51.664;7.114;2024-02-16T07:05:46;12.50;90.90
16182;DHT22;8197;51.664;7.114;2024-02-16T07:10:50;12.50;91.20
16182;DHT22;8197;51.664;7.114;2024-02-16T07:15:55;12.60;91.20
16182;DHT22;8197;51.664;7.114;2024-02-16T07:20:59;12.60;91.30
16182;DHT22;8197;51.664;7.114;2024-02-16T07:26:02;12.60;91.30
16182;DHT22;8197;51.664;7.114;2024-02-16T07:31:09;12.60;91.60
16182;DHT22;8197;51.664;7.114;2024-02-16T07:36:12;12.60;91.80
16182;DHT22;8197;51.664;7.114;2024-02-16T07:41:16;12.60;91.70
16182;DHT22;8197;51.664;7.114;2024-02-16T07:46:20;12.70;91.80
16182;DHT22;8197;51.664;7.114;2024-02-16T07:51:24;12.70;91.70
16182;DHT22;8197;51.664;7.114;2024-02-16T07:56:27;12.80;91.60
16182;DHT22;8197;51.664;7.114;2024-02-16T08:01:31;12.90;91.30
16182;DHT22;8197;51.664;7.114;2024-02-16T08:06:35;13.00;90.40
16182;DHT22;8197;51.664;7.114;2024-02-16T08:11:38;13.10;90.20
16182;DHT22;8197;51.664;7.114;2024-02-16T08:16:42;13.20;89.40
16182;DHT22;8197;51.664;7.114;2024-02-16T08:21:45;13.40;88.70
16182;DHT22;8197;51.664;7.114;2024-02-16T08:26:48;13.50;88.10
16182;DHT22;8197;51.664;7.114;2024-02-16T08:31:53;13.50;87.40
16182;DHT22;8197;51.664;7.114;2024-02-16T08:36:57;13.70;86.60
16182;DHT22;8197;51.664;7.114;2024-02-16T08:42:03;13.90;86.10
16182;DHT22;8197;51.664;7.114;2024-02-16T08:47:08;13.80;86.40
16182;DHT22;8197;51.664;7.114;2024-02-16T08:52:11;13.80;86.60
16182;DHT22;8197;51.664;7.114;2024-02-16T08:57:14;13.90;86.00
16182;DHT22;8197;51.664;7.114;2024-02-16T09:02:18;14.00;85.40
16182;DHT22;8197;51.664;7.114;2024-02-16T09:07:21;14.10;85.50
16182;DHT22;8197;51.664;7.114;2024-02-16T09:12:24;14.20;85.10
16182;DHT22;8197;51.664;7.114;2024-02-16T09:17:28;14.40;84.50
16182;DHT22;8197;51.664;7.114;2024-02-16T09:22:31;14.40;83.80
16182;DHT22;8197;51.664;7.114;2024-02-16T09:27:38;14.40;84.20
16182;DHT22;8197;51.664;7.114;2024-02-16T09:32:44;14.50;84.20
16182;DHT22;8197;51.664;7.114;2024-02-16T09:37:47;14.50;84.30
16182;DHT22;8197;51.664;7.114;2024-02-16T09:42:50;14.50;84.20
16182;DHT22;8197;51.664;7.114;2024-02-16T09:47:56;14.50;84.30
16182;DHT22;8197;51.664;7.114;2024-02-16T09:53:09;14.60;84.60
16182;DHT22;8197;51.664;7.114;2024-02-16T09:58:12;14.60;85.00
16182;DHT22;8197;51.664;7.114;2024-02-16T10:03:28;14.60;84.10
16182;DHT22;8197;51.664;7.114;2024-02-16T10:08:31;14.70;84.40
16182;DHT22;8197;51.664;7.114;2024-02-16T10:13:34;14.70;84.50
16182;DHT22;8197;51.664;7.114;2024-02-16T10:18:38;14.70;84.40
16182;DHT22;8197;51.664;7.114;2024-02-16T10:23:42;14.70;84.40
16182;DHT22;8197;51.664;7.114;2024-02-16T10:28:45;14.80;85.10
16182;DHT22;8197;51.664;7.114;2024-02-16T10:33:50;14.70;85.70
16182;DHT22;8197;51.664;7.114;2024-02-16T10:38:54;14.80;85.50
16182;DHT22;8197;51.664;7.114;2024-02-16T10:43:57;14.80;85.50
16182;DHT22;8197;51.664;7.114;2024-02-16T10:49:03;14.90;84.70
16182;DHT22;8197;51.664;7.114;2024-02-16T10:54:09;14.90;85.30
16182;DHT22;8197;51.664;7.114;2024-02-16T10:59:13;14.90;85.40
16182;DHT22;8197;51.664;7.114;2024-02-16T11:04:18;15.00;85.80
16182;DHT22;8197;51.664;7.114;2024-02-16T11:09:25;14.90;85.50
16182;DHT22;8197;51.664;7.114;2024-02-16T11:14:35;14.90;85.60
16182;DHT22;8197;51.664;7.114;2024-02-16T11:19:44;14.90;85.90
16182;DHT22;8197;51.664;7.114;2024-02-16T11:24:49;15.00;85.80
16182;DHT22;8197;51.664;7.114;2024-02-16T11:29:52;14.90;86.40
16182;DHT22;8197;51.664;7.114;2024-02-16T11:35:05;14.90;86.10
16182;DHT22;8197;51.664;7.114;2024-02-16T11:40:12;14.90;86.50
16182;DHT22;8197;51.664;7.114;2024-02-16T11:45:15;14.80;87.20
16182;DHT22;8197;51.664;7.114;2024-02-16T11:50:19;14.80;87.70
16182;DHT22;8197;51.664;7.114;2024-02-16T11:55:22;14.80;88.40
16182;DHT22;8197;51.664;7.114;2024-02-16T12:00:26;14.80;88.60
16182;DHT22;8197;51.664;7.114;2024-02-16T12:05:30;14.80;89.20
16182;DHT22;8197;51.664;7.114;2024-02-16T12:10:33;14.80;90.90
16182;DHT22;8197;51.664;7.114;2024-02-16T12:15:38;14.80;92.10
16182;DHT22;8197;51.664;7.114;2024-02-16T12:20:42;14.70;91.60
16182;DHT22;8197;51.664;7.114;2024-02-16T12:25:49;14.60;91.30
16182;DHT22;8197;51.664;7.114;2024-02-16T12:30:52;14.70;91.70
16182;DHT22;8197;51.664;7.114;2024-02-16T12:35:58;14.70;92.20
16182;DHT22;8197;51.664;7.114;2024-02-16T12:41:05;14.60;92.20
16182;DHT22;8197;51.664;7.114;2024-02-16T12:46:09;14.60;92.70
16182;DHT22;8197;51.664;7.114;2024-02-16T12:51:14;14.60;92.80
16182;DHT22;8197;51.664;7.114;2024-02-16T12:56:17;14.60;92.90
16182;DHT22;8197;51.664;7.114;2024-02-16T13:01:20;14.60;92.90
16182;DHT22;8197;51.664;7.114;2024-02-16T13:06:29;14.60;93.50
16182;DHT22;8197;51.664;7.114;2024-02-16T13:11:33;14.60;93.90
16182;DHT22;8197;51.664;7.114;2024-02-16T13:16:36;14.60;94.20
16182;DHT22;8197;51.664;7.114;2024-02-16T13:21:40;14.50;94.60
16182;DHT22;8197;51.664;7.114;2024-02-16T13:26:44;14.50;95.00
16182;DHT22;8197;51.664;7.114;2024-02-16T13:31:47;14.50;95.40
16182;DHT22;8197;51.664;7.114;2024-02-16T13:36:51;14.40;97.60
16182;DHT22;8197;51.664;7.114;2024-02-16T13:41:54;14.30;100.00
16182;DHT22;8197;51.664;7.114;2024-02-16T13:46:59;14.10;100.00
16182;DHT22;8197;51.664;7.114;2024-02-16T13:52:03;14.00;100.00
16182;DHT22;8197;51.664;7.114;2024-02-16T13:57:06;13.80;100.00
16182;DHT22;8197;51.664;7.114;2024-02-16T14:02:09;13.70;100.00
16182;DHT22;8197;51.664;7.114;2024-02-16T14:07:14;13.50;100.00
16182;DHT22;8197;51.664;7.114;2024-02-16T14:12:17;13.50;100.00
16182;DHT22;8197;51.664;7.114;2024-02-16T14:17:20;13.50;100.00
16182;DHT22;8197;51.664;7.114;2024-02-16T14:22:24;13.50;100.00
16182;DHT22;8197;51.664;7.114;2024-02-16T14:27:27;13.50;100.00
16182;DHT22;8197;51.664;7.114;2024-02-16T14:32:31;13.40;100.00
16182;DHT22;8197;51.664;7.114;2024-02-16T14:37:35;13.40;100.00
16182;DHT22;8197;51.664;7.114;2024-02-16T14:42:39;13.40;100.00
16182;DHT22;8197;51.664;7.114;2024-02-16T14:47:42;13.30;100.00
16182;DHT22;8197;51.664;7.114;2024-02-16T14:52:46;13.30;100.00
16182;DHT22;8197;51.664;7.114;2024-02-16T14:57:49;13.30;100.00
16182;DHT22;8197;51.664;7.114;2024-02-16T15:02:53;13.20;100.00
16182;DHT22;8197;51.664;7.114;2024-02-16T15:07:58;13.20;100.00
16182;DHT22;8197;51.664;7.114;2024-02-16T15:13:00;13.20;100.00
16182;DHT22;8197;51.664;7.114;2024-02-16T15:18:05;13.20;100.00
16182;DHT22;8197;51.664;7.114;2024-02-16T15:23:10;13.20;100.00
16182;DHT22;8197;51.664;7.114;2024-02-16T15:28:13;13.10;100.00
16182;DHT22;8197;51.664;7.114;2024-02-16T15:33:16;13.10;100.00
16182;DHT22;8197;51.664;7.114;2024-02-16T15:38:23;13.10;100.00
16182;DHT22;8197;51.664;7.114;2024-02-16T15:43:26;13.10;100.00
16182;DHT22;8197;51.664;7.114;2024-02-16T15:48:33;13.10;100.00
16182;DHT22;8197;51.664;7.114;2024-02-16T15:53:37;13.10;100.00
16182;DHT22;8197;51.664;7.114;2024-02-16T15:58:41;13.00;100.00
16182;DHT22;8197;51.664;7.114;2024-02-16T16:03:44;13.00;100.00
16182;DHT22;8197;51.664;7.114;2024-02-16T16:08:49;13.00;100.00
16182;DHT22;8197;51.664;7.114;2024-02-16T16:13:53;12.90;100.00
16182;DHT22;8197;51.664;7.114;2024-02-16T16:18:56;12.90;100.00
16182;DHT22;8197;51.664;7.114;2024-02-16T16:24:00;12.90;100.00
16182;DHT22;8197;51.664;7.114;2024-02-16T16:29:05;12.80;100.00
16182;DHT22;8197;51.664;7.114;2024-02-16T16:34:08;12.70;100.00
16182;DHT22;8197;51.664;7.114;2024-02-16T16:39:13;12.70;100.00
16182;DHT22;8197;51.664;7.114;2024-02-16T16:44:16;12.70;100.00
16182;DHT22;8197;51.664;7.114;2024-02-16T16:49:20;12.60;100.00
16182;DHT22;8197;51.664;7.114;2024-02-16T16:54:24;12.60;100.00
16182;DHT22;8197;51.664;7.114;2024-02-16T16:59:27;12.50;100.00
16182;DHT22;8197;51.664;7.114;2024-02-16T17:04:30;12.50;100.00
16182;DHT22;8197;51.664;7.114;2024-02-16T17:09:36;12.50;100.00
16182;DHT22;8197;51.664;7.114;2024-02-16T17:14:39;12.50;100.00
16182;DHT22;8197;51.664;7.114;2024-02-16T17:19:42;12.50;100.00
16182;DHT22;8197;51.664;7.114;2024-02-16T17:24:48;12.50;100.00
16182;DHT22;8197;51.664;7.114;2024-02-16T17:29:51;12.40;100.00
16182;DHT22;8197;51.664;7.114;2024-02-16T17:34:54;12.40;100.00
16182;DHT22;8197;51.664;7.114;2024-02-16T17:39:58;12.20;100.00
16182;DHT22;8197;51.664;7.114;2024-02-16T17:45:05;12.30;100.00
16182;DHT22;8197;51.664;7.114;2024-02-16T17:50:08;12.30;100.00
16182;DHT22;8197;51.664;7.114;2024-02-16T17:55:13;12.30;100.00
16182;DHT22;8197;51.664;7.114;2024-02-16T18:00:17;12.30;100.00
16182;DHT22;8197;51.664;7.114;2024-02-16T18:05:20;12.20;100.00
16182;DHT22;8197;51.664;7.114;2024-02-16T18:10:24;12.10;100.00
16182;DHT22;8197;51.664;7.114;2024-02-16T18:15:27;12.10;100.00
16182;DHT22;8197;51.664;7.114;2024-02-16T18:20:30;12.00;100.00
16182;DHT22;8197;51.664;7.114;2024-02-16T18:25:37;11.90;100.00
16182;DHT22;8197;51.664;7.114;2024-02-16T18:30:40;11.80;100.00
16182;DHT22;8197;51.664;7.114;2024-02-16T18:35:43;11.80;100.00
16182;DHT22;8197;51.664;7.114;2024-02-16T18:40:47;11.60;100.00
16182;DHT22;8197;51.664;7.114;2024-02-16T18:45:50;11.70;100.00
16182;DHT22;8197;51.664;7.114;2024-02-16T18:50:54;11.70;100.00
16182;DHT22;8197;51.664;7.114;2024-02-16T18:56:01;11.80;100.00
16182;DHT22;8197;51.664;7.114;2024-02-16T19:01:05;11.70;100.00
16182;DHT22;8197;51.664;7.114;2024-02-16T19:06:09;11.70;100.00
16182;DHT22;8197;51.664;7.114;2024-02-16T19:11:14;11.70;100.00
16182;DHT22;8197;51.664;7.114;2024-02-16T19:16:17;11.70;100.00
16182;DHT22;8197;51.664;7.114;2024-02-16T19:21:20;11.70;100.00
16182;DHT22;8197;51.664;7.114;2024-02-16T19:26:25;11.70;100.00
16182;DHT22;8197;51.664;7.114;2024-02-16T19:31:28;11.70;100.00
16182;DHT22;8197;51.664;7.114;2024-02-16T19:36:33;11.60;100.00
16182;DHT22;8197;51.664;7.114;2024-02-16T19:41:44;11.60;100.00
16182;DHT22;8197;51.664;7.114;2024-02-16T19:46:47;11.70;100.00
16182;DHT22;8197;51.664;7.114;2024-02-16T19:51:50;11.70;100.00
16182;DHT22;8197;51.664;7.114;2024-02-16T19:56:54;11.60;100.00
16182;DHT22;8197;51.664;7.114;2024-02-16T20:01:58;11.60;100.00
16182;DHT22;8197;51.664;7.114;2024-02-16T20:07:00;11.60;100.00
16182;DHT22;8197;51.664;7.114;2024-02-16T20:12:07;11.60;100.00
16182;DHT22;8197;51.664;7.114;2024-02-16T20:17:10;11.60;100.00
16182;DHT22;8197;51.664;7.114;2024-02-16T20:22:15;11.60;100.00
16182;DHT22;8197;51.664;7.114;2024-02-16T20:27:19;11.60;100.00
16182;DHT22;8197;51.664;7.114;2024-02-16T20:32:22;11.60;100.00
16182;DHT22;8197;51.664;7.114;2024-02-16T20:37:29;11.60;100.00
16182;DHT22;8197;51.664;7.114;2024-02-16T20:42:36;11.60;100.00
16182;DHT22;8197;51.664;7.114;2024-02-16T20:47:40;11.60;100.00
16182;DHT22;8197;51.664;7.114;2024-02-16T20:52:43;11.60;100.00
16182;DHT22;8197;51.664;7.114;2024-02-16T20:57:47;11.60;100.00
16182;DHT22;8197;51.664;7.114;2024-02-16T21:02:50;11.60;100.00
16182;DHT22;8197;51.664;7.114;2024-02-16T21:07:54;11.60;100.00
16182;DHT22;8197;51.664;7.114;2024-02-16T21:13:00;11.60;100.00
16182;DHT22;8197;51.664;7.114;2024-02-16T21:18:03;11.60;100.00
16182;DHT22;8197;51.664;7.114;2024-02-16T21:23:10;11.50;100.00
16182;DHT22;8197;51.664;7.114;2024-02-16T21:28:15;11.40;100.00
16182;DHT22;8197;51.664;7.114;2024-02-16T21:33:21;11.40;100.00
16182;DHT22;8197;51.664;7.114;2024-02-16T21:38:24;11.50;100.00
16182;DHT22;8197;51.664;7.114;2024-02-16T21:43:29;11.40;100.00
16182;DHT22;8197;51.664;7.114;2024-02-16T21:48:35;11.30;100.00
16182;DHT22;8197;51.664;7.114;2024-02-16T21:53:50;11.30;100.00
16182;DHT22;8197;51.664;7.114;2024-02-16T21:58:56;11.30;100.00
16182;DHT22;8197;51.664;7.114;2024-02-16T22:03:59;11.30;100.00
16182;DHT22;8197;51.664;7.114;2024-02-16T22:09:04;11.20;100.00
16182;DHT22;8197;51.664;7.114;2024-02-16T22:14:10;11.10;100.00
16182;DHT22;8197;51.664;7.114;2024-02-16T22:19:13;11.10;100.00
16182;DHT22;8197;51.664;7.114;2024-02-16T22:24:18;11.10;100.00
16182;DHT22;8197;51.664;7.114;2024-02-16T22:29:26;11.20;100.00
16182;DHT22;8197;51.664;7.114;2024-02-16T22:34:32;11.20;100.00
16182;DHT22;8197;51.664;7.114;2024-02-16T22:39:35;11.20;100.00
16182;DHT22;8197;51.664;7.114;2024-02-16T22:44:39;11.20;100.00
16182;DHT22;8197;51.664;7.114;2024-02-16T22:49:44;11.10;100.00
16182;DHT22;8197;51.664;7.114;2024-02-16T22:54:47;11.10;100.00
16182;DHT22;8197;51.664;7.114;2024-02-16T22:59:52;11.10;100.00
16182;DHT22;8197;51.664;7.114;2024-02-16T23:04:54;11.10;100.00
16182;DHT22;8197;51.664;7.114;2024-02-16T23:09:59;11.10;100.00
16182;DHT22;8197;51.664;7.114;2024-02-16T23:15:06;11.00;100.00
16182;DHT22;8197;51.664;7.114;2024-02-16T23:20:09;11.00;100.00
16182;DHT22;8197;51.664;7.114;2024-02-16T23:25:13;10.90;100.00
16182;DHT22;8197;51.664;7.114;2024-02-16T23:30:18;10.90;100.00
16182;DHT22;8197;51.664;7.114;2024-02-16T23:35:21;10.90;100.00
16182;DHT22;8197;51.664;7.114;2024-02-16T23:40:24;10.80;100.00
16182;DHT22;8197;51.664;7.114;2024-02-16T23:45:32;10.80;100.00
16182;DHT22;8197;51.664;7.114;2024-02-16T23:50:36;10.80;100.00
16182;DHT22;8197;51.664;7.114;2024-02-16T23:55:39;10.80;100.00
